sensor_id;sensor_type;location;lat;lon;timestamp;P1;durP1;ratioP1;P2;durP2;ratioP2
55069;SDS011;40967;52.070;8.596;2022-12-10T00:01:15;15.27;;;8.43;;
55069;SDS011;40967;52.070;8.596;2022-12-10T00:03:42;16.48;;;8.52;;
55069;SDS011;40967;52.070;8.596;2022-12-10T00:06:10;17.20;;;9.23;;
55069;SDS011;40967;52.070;8.596;2022-12-10T00:08:38;16.08;;;9.07;;
55069;SDS011;40967;52.070;8.596;2022-12-10T00:11:05;17.30;;;9.67;;
55069;SDS011;40967;52.070;8.596;2022-12-10T00:13:32;18.88;;;10.00;;
55069;SDS011;40967;52.070;8.596;2022-12-10T00:15:59;20.83;;;11.15;;
55069;SDS011;40967;52.070;8.596;2022-12-10T00:18:24;18.27;;;10.13;;
55069;SDS011;40967;52.070;8.596;2022-12-10T00:20:50;17.45;;;9.57;;
55069;SDS011;40967;52.070;8.596;2022-12-10T00:23:15;19.13;;;10.37;;
55069;SDS011;40967;52.070;8.596;2022-12-10T00:25:41;19.33;;;11.07;;
55069;SDS011;40967;52.070;8.596;2022-12-10T00:28:06;21.17;;;11.70;;
55069;SDS011;40967;52.070;8.596;2022-12-10T00:30:32;21.13;;;11.10;;
55069;SDS011;40967;52.070;8.596;2022-12-10T00:32:58;21.65;;;11.05;;
55069;SDS011;40967;52.070;8.596;2022-12-10T00:35:23;21.03;;;11.23;;
55069;SDS011;40967;52.070;8.596;2022-12-10T00:37:49;21.33;;;11.57;;
55069;SDS011;40967;52.070;8.596;2022-12-10T00:40:14;22.77;;;12.03;;
55069;SDS011;40967;52.070;8.596;2022-12-10T00:42:40;22.10;;;12.00;;
55069;SDS011;40967;52.070;8.596;2022-12-10T00:45:05;20.37;;;11.00;;
55069;SDS011;40967;52.070;8.596;2022-12-10T00:47:31;22.37;;;11.87;;
55069;SDS011;40967;52.070;8.596;2022-12-10T00:49:56;18.00;;;10.43;;
55069;SDS011;40967;52.070;8.596;2022-12-10T00:52:21;18.03;;;10.20;;
55069;SDS011;40967;52.070;8.596;2022-12-10T00:54:47;21.13;;;11.15;;
55069;SDS011;40967;52.070;8.596;2022-12-10T00:57:12;19.70;;;11.00;;
55069;SDS011;40967;52.070;8.596;2022-12-10T00:59:37;19.57;;;10.60;;
55069;SDS011;40967;52.070;8.596;2022-12-10T01:02:03;19.07;;;10.80;;
55069;SDS011;40967;52.070;8.596;2022-12-10T01:04:28;17.67;;;9.77;;
55069;SDS011;40967;52.070;8.596;2022-12-10T01:06:54;17.95;;;10.55;;
55069;SDS011;40967;52.070;8.596;2022-12-10T01:09:21;20.20;;;11.13;;
55069;SDS011;40967;52.070;8.596;2022-12-10T01:11:48;17.80;;;10.00;;
55069;SDS011;40967;52.070;8.596;2022-12-10T01:14:16;18.02;;;10.35;;
55069;SDS011;40967;52.070;8.596;2022-12-10T01:16:56;17.98;;;10.02;;
55069;SDS011;40967;52.070;8.596;2022-12-10T01:19:23;17.27;;;9.60;;
55069;SDS011;40967;52.070;8.596;2022-12-10T01:21:52;15.10;;;8.90;;
55069;SDS011;40967;52.070;8.596;2022-12-10T01:24:22;16.92;;;9.38;;
55069;SDS011;40967;52.070;8.596;2022-12-10T01:26:49;17.95;;;10.00;;
55069;SDS011;40967;52.070;8.596;2022-12-10T01:29:15;19.40;;;10.88;;
55069;SDS011;40967;52.070;8.596;2022-12-10T01:31:40;18.93;;;10.37;;
55069;SDS011;40967;52.070;8.596;2022-12-10T01:34:08;18.85;;;11.00;;
55069;SDS011;40967;52.070;8.596;2022-12-10T01:36:37;16.92;;;9.27;;
55069;SDS011;40967;52.070;8.596;2022-12-10T01:39:05;18.52;;;10.15;;
55069;SDS011;40967;52.070;8.596;2022-12-10T01:41:39;19.33;;;10.93;;
55069;SDS011;40967;52.070;8.596;2022-12-10T01:46:36;19.23;;;10.50;;
55069;SDS011;40967;52.070;8.596;2022-12-10T01:49:08;16.55;;;9.52;;
55069;SDS011;40967;52.070;8.596;2022-12-10T01:51:36;19.15;;;10.32;;
55069;SDS011;40967;52.070;8.596;2022-12-10T01:54:05;17.88;;;9.95;;
55069;SDS011;40967;52.070;8.596;2022-12-10T01:56:35;16.15;;;9.15;;
55069;SDS011;40967;52.070;8.596;2022-12-10T01:59:03;16.80;;;9.57;;
55069;SDS011;40967;52.070;8.596;2022-12-10T02:04:16;18.70;;;10.40;;
55069;SDS011;40967;52.070;8.596;2022-12-10T02:09:46;17.23;;;10.23;;
55069;SDS011;40967;52.070;8.596;2022-12-10T02:15:19;16.90;;;8.90;;
55069;SDS011;40967;52.070;8.596;2022-12-10T02:17:53;17.55;;;10.15;;
55069;SDS011;40967;52.070;8.596;2022-12-10T02:20:32;16.20;;;9.73;;
55069;SDS011;40967;52.070;8.596;2022-12-10T02:25:32;15.07;;;8.98;;
55069;SDS011;40967;52.070;8.596;2022-12-10T02:30:35;15.15;;;8.60;;
55069;SDS011;40967;52.070;8.596;2022-12-10T02:33:01;16.13;;;8.95;;
55069;SDS011;40967;52.070;8.596;2022-12-10T02:35:30;15.27;;;8.93;;
55069;SDS011;40967;52.070;8.596;2022-12-10T02:38:03;15.45;;;8.85;;
55069;SDS011;40967;52.070;8.596;2022-12-10T02:40:36;15.50;;;9.20;;
55069;SDS011;40967;52.070;8.596;2022-12-10T02:43:05;16.67;;;9.30;;
55069;SDS011;40967;52.070;8.596;2022-12-10T02:45:32;14.93;;;8.70;;
55069;SDS011;40967;52.070;8.596;2022-12-10T02:47:59;14.98;;;8.05;;
55069;SDS011;40967;52.070;8.596;2022-12-10T02:50:28;15.10;;;8.65;;
55069;SDS011;40967;52.070;8.596;2022-12-10T02:52:54;16.30;;;8.98;;
55069;SDS011;40967;52.070;8.596;2022-12-10T02:55:19;15.83;;;9.00;;
55069;SDS011;40967;52.070;8.596;2022-12-10T02:58:07;14.50;;;8.20;;
55069;SDS011;40967;52.070;8.596;2022-12-10T03:00:50;15.07;;;8.15;;
55069;SDS011;40967;52.070;8.596;2022-12-10T03:03:44;15.20;;;8.48;;
55069;SDS011;40967;52.070;8.596;2022-12-10T03:11:21;13.95;;;8.23;;
55069;SDS011;40967;52.070;8.596;2022-12-10T03:16:14;15.80;;;8.47;;
55069;SDS011;40967;52.070;8.596;2022-12-10T03:18:41;14.68;;;8.32;;
55069;SDS011;40967;52.070;8.596;2022-12-10T03:21:09;16.00;;;9.10;;
55069;SDS011;40967;52.070;8.596;2022-12-10T03:23:36;14.38;;;8.75;;
55069;SDS011;40967;52.070;8.596;2022-12-10T03:26:05;16.02;;;8.68;;
55069;SDS011;40967;52.070;8.596;2022-12-10T03:28:35;14.80;;;8.33;;
55069;SDS011;40967;52.070;8.596;2022-12-10T03:31:06;14.17;;;8.13;;
55069;SDS011;40967;52.070;8.596;2022-12-10T03:33:34;14.80;;;8.23;;
55069;SDS011;40967;52.070;8.596;2022-12-10T03:36:01;15.32;;;8.60;;
55069;SDS011;40967;52.070;8.596;2022-12-10T03:38:26;14.80;;;8.43;;
55069;SDS011;40967;52.070;8.596;2022-12-10T03:40:52;14.80;;;8.57;;
55069;SDS011;40967;52.070;8.596;2022-12-10T03:43:18;14.00;;;8.10;;
55069;SDS011;40967;52.070;8.596;2022-12-10T03:45:43;14.70;;;8.37;;
55069;SDS011;40967;52.070;8.596;2022-12-10T03:48:09;14.30;;;8.43;;
55069;SDS011;40967;52.070;8.596;2022-12-10T03:50:34;16.23;;;9.30;;
55069;SDS011;40967;52.070;8.596;2022-12-10T03:53:00;14.17;;;7.87;;
55069;SDS011;40967;52.070;8.596;2022-12-10T03:55:32;13.70;;;8.07;;
55069;SDS011;40967;52.070;8.596;2022-12-10T03:57:58;14.23;;;8.18;;
55069;SDS011;40967;52.070;8.596;2022-12-10T04:00:24;13.43;;;8.00;;
55069;SDS011;40967;52.070;8.596;2022-12-10T04:02:49;13.60;;;7.63;;
55069;SDS011;40967;52.070;8.596;2022-12-10T04:05:14;13.87;;;7.97;;
55069;SDS011;40967;52.070;8.596;2022-12-10T04:07:40;13.97;;;8.37;;
55069;SDS011;40967;52.070;8.596;2022-12-10T04:10:06;13.77;;;7.87;;
55069;SDS011;40967;52.070;8.596;2022-12-10T04:12:32;13.90;;;8.20;;
55069;SDS011;40967;52.070;8.596;2022-12-10T04:14:57;13.88;;;8.05;;
55069;SDS011;40967;52.070;8.596;2022-12-10T04:17:42;13.75;;;8.10;;
55069;SDS011;40967;52.070;8.596;2022-12-10T04:20:07;14.17;;;8.47;;
55069;SDS011;40967;52.070;8.596;2022-12-10T04:22:55;12.50;;;7.30;;
55069;SDS011;40967;52.070;8.596;2022-12-10T04:25:39;14.68;;;8.32;;
55069;SDS011;40967;52.070;8.596;2022-12-10T04:28:23;13.65;;;8.02;;
55069;SDS011;40967;52.070;8.596;2022-12-10T04:30:48;14.37;;;7.90;;
55069;SDS011;40967;52.070;8.596;2022-12-10T04:33:13;13.80;;;7.73;;
55069;SDS011;40967;52.070;8.596;2022-12-10T04:35:39;13.53;;;8.00;;
55069;SDS011;40967;52.070;8.596;2022-12-10T04:38:04;14.10;;;8.07;;
55069;SDS011;40967;52.070;8.596;2022-12-10T04:40:29;14.07;;;8.43;;
55069;SDS011;40967;52.070;8.596;2022-12-10T04:42:55;14.57;;;8.20;;
55069;SDS011;40967;52.070;8.596;2022-12-10T04:45:20;14.40;;;8.40;;
55069;SDS011;40967;52.070;8.596;2022-12-10T04:47:45;16.60;;;9.83;;
55069;SDS011;40967;52.070;8.596;2022-12-10T04:50:11;14.97;;;8.40;;
55069;SDS011;40967;52.070;8.596;2022-12-10T04:52:36;15.35;;;8.52;;
55069;SDS011;40967;52.070;8.596;2022-12-10T04:55:01;13.93;;;8.63;;
55069;SDS011;40967;52.070;8.596;2022-12-10T04:57:27;13.40;;;7.60;;
55069;SDS011;40967;52.070;8.596;2022-12-10T04:59:52;13.55;;;8.02;;
55069;SDS011;40967;52.070;8.596;2022-12-10T05:02:18;13.40;;;8.00;;
55069;SDS011;40967;52.070;8.596;2022-12-10T05:04:43;14.00;;;8.43;;
55069;SDS011;40967;52.070;8.596;2022-12-10T05:07:08;12.88;;;7.75;;
55069;SDS011;40967;52.070;8.596;2022-12-10T05:09:33;13.33;;;7.77;;
55069;SDS011;40967;52.070;8.596;2022-12-10T05:11:59;13.03;;;7.70;;
55069;SDS011;40967;52.070;8.596;2022-12-10T05:14:31;14.75;;;8.90;;
55069;SDS011;40967;52.070;8.596;2022-12-10T05:16:57;14.23;;;8.30;;
55069;SDS011;40967;52.070;8.596;2022-12-10T05:19:23;13.10;;;8.23;;
55069;SDS011;40967;52.070;8.596;2022-12-10T05:21:51;14.82;;;8.20;;
55069;SDS011;40967;52.070;8.596;2022-12-10T05:24:35;12.68;;;7.68;;
55069;SDS011;40967;52.070;8.596;2022-12-10T05:27:01;14.25;;;7.93;;
55069;SDS011;40967;52.070;8.596;2022-12-10T05:29:26;14.20;;;8.18;;
55069;SDS011;40967;52.070;8.596;2022-12-10T05:31:51;14.07;;;8.27;;
55069;SDS011;40967;52.070;8.596;2022-12-10T05:34:17;12.53;;;7.10;;
55069;SDS011;40967;52.070;8.596;2022-12-10T05:36:42;13.52;;;7.60;;
55069;SDS011;40967;52.070;8.596;2022-12-10T05:39:08;11.63;;;7.13;;
55069;SDS011;40967;52.070;8.596;2022-12-10T05:41:36;12.02;;;7.18;;
55069;SDS011;40967;52.070;8.596;2022-12-10T05:44:02;13.82;;;7.35;;
55069;SDS011;40967;52.070;8.596;2022-12-10T05:46:29;13.17;;;7.87;;
55069;SDS011;40967;52.070;8.596;2022-12-10T05:48:56;12.65;;;7.63;;
55069;SDS011;40967;52.070;8.596;2022-12-10T05:51:23;14.80;;;8.50;;
55069;SDS011;40967;52.070;8.596;2022-12-10T05:53:51;13.02;;;7.65;;
55069;SDS011;40967;52.070;8.596;2022-12-10T05:56:18;12.93;;;7.65;;
55069;SDS011;40967;52.070;8.596;2022-12-10T05:58:47;13.95;;;8.25;;
55069;SDS011;40967;52.070;8.596;2022-12-10T06:01:18;13.75;;;7.50;;
55069;SDS011;40967;52.070;8.596;2022-12-10T06:03:45;13.98;;;7.80;;
55069;SDS011;40967;52.070;8.596;2022-12-10T06:06:11;14.07;;;7.88;;
55069;SDS011;40967;52.070;8.596;2022-12-10T06:08:37;12.43;;;6.90;;
55069;SDS011;40967;52.070;8.596;2022-12-10T06:11:04;13.10;;;7.77;;
55069;SDS011;40967;52.070;8.596;2022-12-10T06:13:31;12.40;;;7.00;;
55069;SDS011;40967;52.070;8.596;2022-12-10T06:15:56;12.63;;;7.10;;
55069;SDS011;40967;52.070;8.596;2022-12-10T06:18:22;12.17;;;7.30;;
55069;SDS011;40967;52.070;8.596;2022-12-10T06:20:47;11.82;;;7.28;;
55069;SDS011;40967;52.070;8.596;2022-12-10T06:23:12;13.20;;;7.53;;
55069;SDS011;40967;52.070;8.596;2022-12-10T06:25:38;13.30;;;7.47;;
55069;SDS011;40967;52.070;8.596;2022-12-10T06:28:05;12.57;;;7.43;;
55069;SDS011;40967;52.070;8.596;2022-12-10T06:30:31;13.25;;;7.40;;
55069;SDS011;40967;52.070;8.596;2022-12-10T06:32:57;12.07;;;7.15;;
55069;SDS011;40967;52.070;8.596;2022-12-10T06:35:23;12.20;;;6.97;;
55069;SDS011;40967;52.070;8.596;2022-12-10T06:37:49;12.07;;;6.80;;
55069;SDS011;40967;52.070;8.596;2022-12-10T06:40:15;13.95;;;7.43;;
55069;SDS011;40967;52.070;8.596;2022-12-10T06:42:40;13.75;;;7.68;;
55069;SDS011;40967;52.070;8.596;2022-12-10T06:45:06;13.13;;;7.50;;
55069;SDS011;40967;52.070;8.596;2022-12-10T06:47:31;12.85;;;7.53;;
55069;SDS011;40967;52.070;8.596;2022-12-10T06:49:57;13.37;;;7.60;;
55069;SDS011;40967;52.070;8.596;2022-12-10T06:52:22;13.18;;;7.35;;
55069;SDS011;40967;52.070;8.596;2022-12-10T06:54:47;13.13;;;7.70;;
55069;SDS011;40967;52.070;8.596;2022-12-10T06:57:13;12.73;;;7.20;;
55069;SDS011;40967;52.070;8.596;2022-12-10T06:59:38;12.35;;;7.55;;
55069;SDS011;40967;52.070;8.596;2022-12-10T07:02:04;13.00;;;7.67;;
55069;SDS011;40967;52.070;8.596;2022-12-10T07:04:29;14.13;;;8.47;;
55069;SDS011;40967;52.070;8.596;2022-12-10T07:06:54;14.80;;;7.95;;
55069;SDS011;40967;52.070;8.596;2022-12-10T07:09:19;14.23;;;8.10;;
55069;SDS011;40967;52.070;8.596;2022-12-10T07:11:45;13.03;;;8.07;;
55069;SDS011;40967;52.070;8.596;2022-12-10T07:14:14;13.23;;;7.70;;
55069;SDS011;40967;52.070;8.596;2022-12-10T07:16:41;13.27;;;7.82;;
55069;SDS011;40967;52.070;8.596;2022-12-10T07:19:07;14.57;;;8.33;;
55069;SDS011;40967;52.070;8.596;2022-12-10T07:21:34;13.70;;;7.95;;
55069;SDS011;40967;52.070;8.596;2022-12-10T07:24:02;12.27;;;7.55;;
55069;SDS011;40967;52.070;8.596;2022-12-10T07:26:30;12.30;;;7.37;;
55069;SDS011;40967;52.070;8.596;2022-12-10T07:29:21;12.98;;;7.75;;
55069;SDS011;40967;52.070;8.596;2022-12-10T07:31:47;14.13;;;8.00;;
55069;SDS011;40967;52.070;8.596;2022-12-10T07:34:14;15.68;;;8.90;;
55069;SDS011;40967;52.070;8.596;2022-12-10T07:36:39;13.38;;;7.78;;
55069;SDS011;40967;52.070;8.596;2022-12-10T07:39:06;14.75;;;7.90;;
55069;SDS011;40967;52.070;8.596;2022-12-10T07:41:44;13.32;;;8.23;;
55069;SDS011;40967;52.070;8.596;2022-12-10T07:44:17;14.48;;;7.82;;
55069;SDS011;40967;52.070;8.596;2022-12-10T07:46:47;12.40;;;7.47;;
55069;SDS011;40967;52.070;8.596;2022-12-10T07:49:13;14.33;;;8.47;;
55069;SDS011;40967;52.070;8.596;2022-12-10T07:54:51;13.32;;;7.80;;
55069;SDS011;40967;52.070;8.596;2022-12-10T07:57:17;14.77;;;8.30;;
55069;SDS011;40967;52.070;8.596;2022-12-10T07:59:42;13.77;;;7.83;;
55069;SDS011;40967;52.070;8.596;2022-12-10T08:05:23;14.60;;;8.60;;
55069;SDS011;40967;52.070;8.596;2022-12-10T08:07:48;14.23;;;8.00;;
55069;SDS011;40967;52.070;8.596;2022-12-10T08:10:14;14.97;;;8.87;;
55069;SDS011;40967;52.070;8.596;2022-12-10T08:12:39;13.90;;;8.27;;
55069;SDS011;40967;52.070;8.596;2022-12-10T08:15:04;14.43;;;8.20;;
55069;SDS011;40967;52.070;8.596;2022-12-10T08:17:30;13.60;;;8.00;;
55069;SDS011;40967;52.070;8.596;2022-12-10T08:19:55;13.57;;;7.83;;
55069;SDS011;40967;52.070;8.596;2022-12-10T08:22:21;13.37;;;7.50;;
55069;SDS011;40967;52.070;8.596;2022-12-10T08:24:46;14.07;;;8.20;;
55069;SDS011;40967;52.070;8.596;2022-12-10T08:27:11;14.17;;;8.73;;
55069;SDS011;40967;52.070;8.596;2022-12-10T08:29:37;13.83;;;8.13;;
55069;SDS011;40967;52.070;8.596;2022-12-10T08:32:02;16.27;;;9.00;;
55069;SDS011;40967;52.070;8.596;2022-12-10T08:34:28;15.33;;;9.17;;
55069;SDS011;40967;52.070;8.596;2022-12-10T08:36:53;15.67;;;9.10;;
55069;SDS011;40967;52.070;8.596;2022-12-10T08:39:18;16.13;;;9.55;;
55069;SDS011;40967;52.070;8.596;2022-12-10T08:41:44;15.17;;;8.97;;
55069;SDS011;40967;52.070;8.596;2022-12-10T08:44:13;16.42;;;9.77;;
55069;SDS011;40967;52.070;8.596;2022-12-10T08:46:39;15.70;;;9.20;;
55069;SDS011;40967;52.070;8.596;2022-12-10T08:49:04;16.73;;;9.50;;
55069;SDS011;40967;52.070;8.596;2022-12-10T08:51:31;15.77;;;9.48;;
55069;SDS011;40967;52.070;8.596;2022-12-10T08:53:57;15.47;;;8.90;;
55069;SDS011;40967;52.070;8.596;2022-12-10T08:56:23;15.35;;;8.82;;
55069;SDS011;40967;52.070;8.596;2022-12-10T08:58:48;13.97;;;7.80;;
55069;SDS011;40967;52.070;8.596;2022-12-10T09:01:14;14.25;;;8.18;;
55069;SDS011;40967;52.070;8.596;2022-12-10T09:03:42;14.15;;;8.27;;
55069;SDS011;40967;52.070;8.596;2022-12-10T09:06:10;14.23;;;8.10;;
55069;SDS011;40967;52.070;8.596;2022-12-10T09:08:38;15.20;;;8.68;;
55069;SDS011;40967;52.070;8.596;2022-12-10T09:11:04;14.50;;;8.53;;
55069;SDS011;40967;52.070;8.596;2022-12-10T09:13:33;14.55;;;8.60;;
55069;SDS011;40967;52.070;8.596;2022-12-10T09:15:59;14.15;;;8.68;;
55069;SDS011;40967;52.070;8.596;2022-12-10T09:18:24;14.80;;;8.50;;
55069;SDS011;40967;52.070;8.596;2022-12-10T09:20:49;13.90;;;8.13;;
55069;SDS011;40967;52.070;8.596;2022-12-10T09:23:15;15.77;;;9.40;;
55069;SDS011;40967;52.070;8.596;2022-12-10T09:25:40;15.90;;;8.93;;
55069;SDS011;40967;52.070;8.596;2022-12-10T09:28:09;14.77;;;8.75;;
55069;SDS011;40967;52.070;8.596;2022-12-10T09:30:34;13.95;;;8.27;;
55069;SDS011;40967;52.070;8.596;2022-12-10T09:33:02;15.20;;;8.80;;
55069;SDS011;40967;52.070;8.596;2022-12-10T09:35:27;13.00;;;7.90;;
55069;SDS011;40967;52.070;8.596;2022-12-10T09:37:53;14.55;;;8.70;;
55069;SDS011;40967;52.070;8.596;2022-12-10T09:40:21;14.33;;;8.30;;
55069;SDS011;40967;52.070;8.596;2022-12-10T09:43:01;14.13;;;8.70;;
55069;SDS011;40967;52.070;8.596;2022-12-10T09:46:36;15.70;;;9.07;;
55069;SDS011;40967;52.070;8.596;2022-12-10T09:51:51;14.50;;;8.25;;
55069;SDS011;40967;52.070;8.596;2022-12-10T09:54:33;15.02;;;8.93;;
55069;SDS011;40967;52.070;8.596;2022-12-10T09:57:05;15.48;;;8.93;;
55069;SDS011;40967;52.070;8.596;2022-12-10T09:59:42;15.38;;;8.65;;
55069;SDS011;40967;52.070;8.596;2022-12-10T10:04:55;15.30;;;9.00;;
55069;SDS011;40967;52.070;8.596;2022-12-10T10:07:33;14.93;;;9.15;;
55069;SDS011;40967;52.070;8.596;2022-12-10T10:10:06;15.80;;;8.77;;
55069;SDS011;40967;52.070;8.596;2022-12-10T10:12:37;15.43;;;9.10;;
55069;SDS011;40967;52.070;8.596;2022-12-10T10:15:12;14.57;;;8.98;;
55069;SDS011;40967;52.070;8.596;2022-12-10T10:17:39;15.38;;;8.63;;
55069;SDS011;40967;52.070;8.596;2022-12-10T10:20:10;13.85;;;8.52;;
55069;SDS011;40967;52.070;8.596;2022-12-10T10:22:37;13.75;;;8.35;;
55069;SDS011;40967;52.070;8.596;2022-12-10T10:25:04;15.85;;;9.07;;
55069;SDS011;40967;52.070;8.596;2022-12-10T10:30:33;14.65;;;8.60;;
55069;SDS011;40967;52.070;8.596;2022-12-10T10:32:58;14.48;;;8.40;;
55069;SDS011;40967;52.070;8.596;2022-12-10T10:35:34;13.18;;;7.45;;
55069;SDS011;40967;52.070;8.596;2022-12-10T10:38:13;13.80;;;7.80;;
55069;SDS011;40967;52.070;8.596;2022-12-10T10:40:50;12.82;;;7.47;;
55069;SDS011;40967;52.070;8.596;2022-12-10T10:43:20;13.40;;;8.10;;
55069;SDS011;40967;52.070;8.596;2022-12-10T10:45:53;14.10;;;8.18;;
55069;SDS011;40967;52.070;8.596;2022-12-10T10:48:24;12.00;;;7.32;;
55069;SDS011;40967;52.070;8.596;2022-12-10T10:50:51;13.65;;;8.00;;
55069;SDS011;40967;52.070;8.596;2022-12-10T10:55:48;14.18;;;8.70;;
55069;SDS011;40967;52.070;8.596;2022-12-10T10:58:18;13.10;;;7.82;;
55069;SDS011;40967;52.070;8.596;2022-12-10T11:01:04;12.88;;;7.45;;
55069;SDS011;40967;52.070;8.596;2022-12-10T11:03:32;11.50;;;6.85;;
55069;SDS011;40967;52.070;8.596;2022-12-10T11:06:00;11.50;;;6.43;;
55069;SDS011;40967;52.070;8.596;2022-12-10T11:08:30;9.38;;;5.63;;
55069;SDS011;40967;52.070;8.596;2022-12-10T11:11:10;10.48;;;5.53;;
55069;SDS011;40967;52.070;8.596;2022-12-10T11:13:38;11.07;;;6.47;;
55069;SDS011;40967;52.070;8.596;2022-12-10T11:16:12;10.07;;;5.60;;
55069;SDS011;40967;52.070;8.596;2022-12-10T11:21:27;9.27;;;5.27;;
55069;SDS011;40967;52.070;8.596;2022-12-10T11:23:56;9.70;;;5.55;;
55069;SDS011;40967;52.070;8.596;2022-12-10T11:45:46;7.85;;;4.57;;
55069;SDS011;40967;52.070;8.596;2022-12-10T11:53:36;7.85;;;4.38;;
55069;SDS011;40967;52.070;8.596;2022-12-10T12:04:41;8.10;;;4.40;;
55069;SDS011;40967;52.070;8.596;2022-12-10T12:07:29;7.43;;;4.13;;
55069;SDS011;40967;52.070;8.596;2022-12-10T12:20:42;7.15;;;3.80;;
55069;SDS011;40967;52.070;8.596;2022-12-10T12:25:42;6.63;;;3.50;;
55069;SDS011;40967;52.070;8.596;2022-12-10T12:28:14;6.15;;;3.25;;
55069;SDS011;40967;52.070;8.596;2022-12-10T12:30:59;7.65;;;3.67;;
55069;SDS011;40967;52.070;8.596;2022-12-10T12:33:36;6.22;;;3.35;;
55069;SDS011;40967;52.070;8.596;2022-12-10T12:36:14;5.75;;;2.80;;
55069;SDS011;40967;52.070;8.596;2022-12-10T12:39:06;5.88;;;3.15;;
55069;SDS011;40967;52.070;8.596;2022-12-10T12:50:20;6.00;;;3.10;;
55069;SDS011;40967;52.070;8.596;2022-12-10T12:52:58;5.88;;;3.08;;
55069;SDS011;40967;52.070;8.596;2022-12-10T12:58:38;5.50;;;2.90;;
55069;SDS011;40967;52.070;8.596;2022-12-10T13:04:27;6.75;;;3.78;;
55069;SDS011;40967;52.070;8.596;2022-12-10T13:10:10;6.85;;;3.60;;
55069;SDS011;40967;52.070;8.596;2022-12-10T13:12:51;6.03;;;3.20;;
55069;SDS011;40967;52.070;8.596;2022-12-10T13:15:38;6.60;;;3.17;;
55069;SDS011;40967;52.070;8.596;2022-12-10T13:20:40;6.25;;;3.55;;
55069;SDS011;40967;52.070;8.596;2022-12-10T13:41:30;7.00;;;3.85;;
55069;SDS011;40967;52.070;8.596;2022-12-10T13:44:46;6.80;;;4.10;;
55069;SDS011;40967;52.070;8.596;2022-12-10T13:47:27;7.07;;;4.07;;
55069;SDS011;40967;52.070;8.596;2022-12-10T13:49:58;7.78;;;4.18;;
55069;SDS011;40967;52.070;8.596;2022-12-10T13:55:26;7.40;;;4.32;;
55069;SDS011;40967;52.070;8.596;2022-12-10T14:01:12;6.95;;;3.90;;
55069;SDS011;40967;52.070;8.596;2022-12-10T14:04:15;7.10;;;3.70;;
55069;SDS011;40967;52.070;8.596;2022-12-10T14:06:58;6.20;;;3.73;;
55069;SDS011;40967;52.070;8.596;2022-12-10T14:09:30;6.20;;;3.67;;
55069;SDS011;40967;52.070;8.596;2022-12-10T14:12:07;7.45;;;4.10;;
55069;SDS011;40967;52.070;8.596;2022-12-10T14:14:40;7.05;;;4.07;;
55069;SDS011;40967;52.070;8.596;2022-12-10T14:17:12;7.47;;;4.18;;
55069;SDS011;40967;52.070;8.596;2022-12-10T14:19:41;7.72;;;4.22;;
55069;SDS011;40967;52.070;8.596;2022-12-10T14:22:13;6.85;;;3.85;;
55069;SDS011;40967;52.070;8.596;2022-12-10T14:24:44;6.80;;;3.63;;
55069;SDS011;40967;52.070;8.596;2022-12-10T14:27:16;6.68;;;3.70;;
55069;SDS011;40967;52.070;8.596;2022-12-10T14:30:00;7.43;;;4.00;;
55069;SDS011;40967;52.070;8.596;2022-12-10T14:32:32;7.28;;;3.88;;
55069;SDS011;40967;52.070;8.596;2022-12-10T14:35:00;7.38;;;4.00;;
55069;SDS011;40967;52.070;8.596;2022-12-10T14:37:29;6.88;;;3.72;;
55069;SDS011;40967;52.070;8.596;2022-12-10T14:39:58;7.38;;;4.13;;
55069;SDS011;40967;52.070;8.596;2022-12-10T14:42:24;6.80;;;3.92;;
55069;SDS011;40967;52.070;8.596;2022-12-10T14:44:51;6.53;;;3.83;;
55069;SDS011;40967;52.070;8.596;2022-12-10T14:47:23;7.45;;;4.07;;
55069;SDS011;40967;52.070;8.596;2022-12-10T14:49:49;6.87;;;3.90;;
55069;SDS011;40967;52.070;8.596;2022-12-10T14:52:20;7.13;;;3.95;;
55069;SDS011;40967;52.070;8.596;2022-12-10T14:54:47;7.30;;;4.03;;
55069;SDS011;40967;52.070;8.596;2022-12-10T14:57:37;7.97;;;4.30;;
55069;SDS011;40967;52.070;8.596;2022-12-10T15:00:14;8.03;;;4.37;;
55069;SDS011;40967;52.070;8.596;2022-12-10T15:05:53;7.90;;;4.28;;
55069;SDS011;40967;52.070;8.596;2022-12-10T15:08:20;9.17;;;4.97;;
55069;SDS011;40967;52.070;8.596;2022-12-10T15:10:52;8.80;;;5.05;;
55069;SDS011;40967;52.070;8.596;2022-12-10T15:13:22;9.95;;;5.10;;
55069;SDS011;40967;52.070;8.596;2022-12-10T15:15:48;7.82;;;4.55;;
55069;SDS011;40967;52.070;8.596;2022-12-10T15:18:16;7.25;;;4.10;;
55069;SDS011;40967;52.070;8.596;2022-12-10T15:28:35;8.95;;;4.70;;
55069;SDS011;40967;52.070;8.596;2022-12-10T15:31:13;7.90;;;4.63;;
55069;SDS011;40967;52.070;8.596;2022-12-10T15:33:58;8.03;;;4.43;;
55069;SDS011;40967;52.070;8.596;2022-12-10T15:46:51;8.00;;;4.60;;
55069;SDS011;40967;52.070;8.596;2022-12-10T15:49:37;9.30;;;5.00;;
55069;SDS011;40967;52.070;8.596;2022-12-10T15:52:03;9.00;;;4.80;;
55069;SDS011;40967;52.070;8.596;2022-12-10T15:54:33;8.23;;;4.80;;
55069;SDS011;40967;52.070;8.596;2022-12-10T15:57:04;8.95;;;5.00;;
55069;SDS011;40967;52.070;8.596;2022-12-10T15:59:37;7.90;;;4.37;;
55069;SDS011;40967;52.070;8.596;2022-12-10T16:02:02;8.07;;;4.53;;
55069;SDS011;40967;52.070;8.596;2022-12-10T16:04:28;8.70;;;4.77;;
55069;SDS011;40967;52.070;8.596;2022-12-10T16:06:53;8.73;;;4.63;;
55069;SDS011;40967;52.070;8.596;2022-12-10T16:09:19;8.50;;;4.80;;
55069;SDS011;40967;52.070;8.596;2022-12-10T16:11:44;8.50;;;4.70;;
55069;SDS011;40967;52.070;8.596;2022-12-10T16:14:10;8.13;;;4.40;;
55069;SDS011;40967;52.070;8.596;2022-12-10T16:16:38;8.10;;;4.72;;
55069;SDS011;40967;52.070;8.596;2022-12-10T16:19:07;8.57;;;4.72;;
55069;SDS011;40967;52.070;8.596;2022-12-10T16:21:35;7.85;;;4.68;;
55069;SDS011;40967;52.070;8.596;2022-12-10T16:24:00;8.80;;;4.80;;
55069;SDS011;40967;52.070;8.596;2022-12-10T16:26:26;8.77;;;4.93;;
55069;SDS011;40967;52.070;8.596;2022-12-10T16:28:51;9.60;;;5.23;;
55069;SDS011;40967;52.070;8.596;2022-12-10T16:31:18;9.27;;;5.40;;
55069;SDS011;40967;52.070;8.596;2022-12-10T16:33:45;9.95;;;5.40;;
55069;SDS011;40967;52.070;8.596;2022-12-10T16:36:12;10.30;;;5.72;;
55069;SDS011;40967;52.070;8.596;2022-12-10T16:38:38;9.53;;;5.33;;
55069;SDS011;40967;52.070;8.596;2022-12-10T16:41:09;9.55;;;5.40;;
55069;SDS011;40967;52.070;8.596;2022-12-10T16:43:43;9.32;;;5.38;;
55069;SDS011;40967;52.070;8.596;2022-12-10T16:46:09;9.43;;;5.43;;
55069;SDS011;40967;52.070;8.596;2022-12-10T16:48:36;9.25;;;5.35;;
55069;SDS011;40967;52.070;8.596;2022-12-10T16:51:02;10.00;;;5.50;;
55069;SDS011;40967;52.070;8.596;2022-12-10T16:53:28;9.25;;;5.35;;
55069;SDS011;40967;52.070;8.596;2022-12-10T16:55:56;9.32;;;5.60;;
55069;SDS011;40967;52.070;8.596;2022-12-10T16:58:22;9.97;;;5.73;;
55069;SDS011;40967;52.070;8.596;2022-12-10T17:00:49;9.57;;;5.13;;
55069;SDS011;40967;52.070;8.596;2022-12-10T17:03:18;10.13;;;5.72;;
55069;SDS011;40967;52.070;8.596;2022-12-10T17:05:56;9.32;;;5.53;;
55069;SDS011;40967;52.070;8.596;2022-12-10T17:08:23;9.67;;;5.60;;
55069;SDS011;40967;52.070;8.596;2022-12-10T17:10:50;10.10;;;5.90;;
55069;SDS011;40967;52.070;8.596;2022-12-10T17:13:35;10.05;;;5.82;;
55069;SDS011;40967;52.070;8.596;2022-12-10T17:16:04;10.85;;;6.20;;
55069;SDS011;40967;52.070;8.596;2022-12-10T17:18:30;10.43;;;6.15;;
55069;SDS011;40967;52.070;8.596;2022-12-10T17:20:58;10.25;;;6.05;;
55069;SDS011;40967;52.070;8.596;2022-12-10T17:23:23;9.88;;;5.65;;
55069;SDS011;40967;52.070;8.596;2022-12-10T17:25:49;10.25;;;6.10;;